createdAt,value
2024-01-16T00:01:29.538Z,4.10
2024-01-16T00:03:57.637Z,4.15
2024-01-16T00:06:26.851Z,4.13
2024-01-16T00:08:54.657Z,3.72
2024-01-16T00:11:23.013Z,4.15
2024-01-16T00:13:50.790Z,4.47
2024-01-16T00:16:18.441Z,5.00
2024-01-16T00:18:46.822Z,4.70
2024-01-16T00:21:14.511Z,4.72
2024-01-16T00:23:43.698Z,4.60
2024-01-16T00:26:21.532Z,4.43
2024-01-16T00:28:49.265Z,4.97
2024-01-16T00:31:16.972Z,4.20
2024-01-16T00:33:45.153Z,4.63
2024-01-16T00:36:12.887Z,4.80
2024-01-16T00:38:40.722Z,4.25
2024-01-16T00:41:10.678Z,4.40
2024-01-16T00:43:38.899Z,4.22
2024-01-16T00:46:07.395Z,4.15
2024-01-16T00:48:35.495Z,4.80
2024-01-16T00:51:03.255Z,4.32
2024-01-16T00:53:31.257Z,4.47
2024-01-16T00:55:59.000Z,4.40
2024-01-16T00:58:28.198Z,4.78
2024-01-16T01:00:56.718Z,5.63
2024-01-16T01:03:24.438Z,4.82
2024-01-16T01:05:52.211Z,4.80
2024-01-16T01:08:20.670Z,4.20
2024-01-16T01:10:48.747Z,4.97
2024-01-16T01:13:16.448Z,4.60
2024-01-16T01:15:45.628Z,4.70
2024-01-16T01:18:14.060Z,4.50
2024-01-16T01:20:42.025Z,4.60
2024-01-16T01:23:11.055Z,4.30
2024-01-16T01:25:39.296Z,4.17
2024-01-16T01:28:07.174Z,4.07
2024-01-16T01:30:35.117Z,4.70
2024-01-16T01:33:05.121Z,3.90
2024-01-16T01:38:00.164Z,4.63
2024-01-16T01:40:28.438Z,4.95
2024-01-16T01:42:56.132Z,4.53
2024-01-16T01:45:23.662Z,4.43
2024-01-16T01:47:52.019Z,3.90
2024-01-16T01:50:21.334Z,4.75
2024-01-16T01:52:49.042Z,3.83
2024-01-16T01:55:17.313Z,3.92
2024-01-16T01:57:45.053Z,4.38
2024-01-16T02:00:13.946Z,4.03
2024-01-16T02:02:44.054Z,4.60
2024-01-16T02:05:11.978Z,3.83
2024-01-16T02:07:41.235Z,4.18
2024-01-16T02:10:10.350Z,4.05
2024-01-16T02:12:38.153Z,4.53
2024-01-16T02:15:06.659Z,4.13
2024-01-16T02:17:34.684Z,5.85
2024-01-16T02:20:02.412Z,4.93
2024-01-16T02:22:33.002Z,6.00
2024-01-16T02:25:02.597Z,5.32
2024-01-16T02:27:30.163Z,4.65
2024-01-16T02:29:58.020Z,5.20
2024-01-16T02:32:26.094Z,5.70
2024-01-16T02:34:53.762Z,5.10
2024-01-16T02:37:21.703Z,5.05
2024-01-16T02:39:49.712Z,5.05
2024-01-16T02:42:18.821Z,4.68
2024-01-16T02:44:46.566Z,4.80
2024-01-16T02:47:14.595Z,4.55
2024-01-16T02:49:42.228Z,4.38
2024-01-16T02:52:10.151Z,4.72
2024-01-16T02:54:38.112Z,4.97
2024-01-16T02:57:05.975Z,5.25
2024-01-16T02:59:35.076Z,5.00
2024-01-16T03:02:03.551Z,4.90
2024-01-16T03:04:31.320Z,4.97
2024-01-16T03:06:58.876Z,5.13
2024-01-16T03:09:26.627Z,5.40
2024-01-16T03:11:54.370Z,5.50
2024-01-16T03:14:22.054Z,5.70
2024-01-16T03:16:51.460Z,5.38
2024-01-16T03:19:19.208Z,5.38
2024-01-16T03:21:46.841Z,5.60
2024-01-16T03:24:14.886Z,5.68
2024-01-16T03:26:42.584Z,5.25
2024-01-16T03:29:10.621Z,5.47
2024-01-16T03:31:39.204Z,5.40
2024-01-16T03:34:08.421Z,5.90
2024-01-16T03:36:36.047Z,5.50
2024-01-16T03:39:04.268Z,6.22
2024-01-16T03:41:31.897Z,5.40
2024-01-16T03:43:59.519Z,5.22
2024-01-16T03:46:27.803Z,5.30
2024-01-16T03:48:55.542Z,6.15
2024-01-16T03:51:24.563Z,6.07
2024-01-16T03:53:52.869Z,6.28
2024-01-16T03:56:20.508Z,5.93
2024-01-16T03:58:48.409Z,6.03
2024-01-16T04:01:16.323Z,6.50
2024-01-16T04:03:44.002Z,6.10
2024-01-16T04:06:18.247Z,6.53
2024-01-16T04:08:47.505Z,7.32
2024-01-16T04:11:15.612Z,6.95
2024-01-16T04:13:43.733Z,6.97
2024-01-16T04:16:13.933Z,8.30
2024-01-16T04:18:45.201Z,7.40
2024-01-16T04:21:13.274Z,7.82
2024-01-16T04:23:42.479Z,7.15
2024-01-16T04:26:11.967Z,7.45
2024-01-16T04:28:39.655Z,7.75
2024-01-16T04:31:07.532Z,8.18
2024-01-16T04:33:36.137Z,8.45
2024-01-16T04:36:04.193Z,9.00
2024-01-16T04:38:31.865Z,8.40
2024-01-16T04:41:03.030Z,9.23
2024-01-16T04:43:32.413Z,9.40
2024-01-16T04:46:02.661Z,8.70
2024-01-16T04:48:32.110Z,9.50
2024-01-16T04:50:59.931Z,12.20
2024-01-16T04:53:27.510Z,10.90
2024-01-16T04:55:55.501Z,10.98
2024-01-16T04:58:23.132Z,10.90
2024-01-16T05:00:52.288Z,11.68
2024-01-16T05:03:20.086Z,11.35
2024-01-16T05:05:48.333Z,10.75
2024-01-16T05:08:16.205Z,11.18
2024-01-16T05:10:45.738Z,10.50
2024-01-16T05:13:13.640Z,10.60
2024-01-16T05:15:42.158Z,11.18
2024-01-16T05:18:11.674Z,10.98
2024-01-16T05:20:39.467Z,11.98
2024-01-16T05:23:07.071Z,11.30
2024-01-16T05:25:35.330Z,15.02
2024-01-16T05:28:03.075Z,14.32
2024-01-16T05:30:30.788Z,14.05
2024-01-16T05:32:58.858Z,12.60
2024-01-16T05:35:28.057Z,13.25
2024-01-16T05:37:55.798Z,15.45
2024-01-16T05:40:24.083Z,15.07
2024-01-16T05:42:52.215Z,19.15
2024-01-16T05:45:19.990Z,21.20
2024-01-16T05:47:48.003Z,22.70
2024-01-16T05:50:15.990Z,22.00
2024-01-16T05:52:47.150Z,23.15
2024-01-16T05:55:15.796Z,26.42
2024-01-16T05:57:43.437Z,24.25
2024-01-16T06:00:12.088Z,22.73
2024-01-16T06:02:40.642Z,25.38
2024-01-16T06:05:08.782Z,40.35
2024-01-16T06:07:36.371Z,35.53
2024-01-16T06:10:07.203Z,31.35
2024-01-16T06:12:36.005Z,32.97
2024-01-16T06:15:03.744Z,31.60
2024-01-16T06:17:32.020Z,32.97
2024-01-16T06:19:59.943Z,34.97
2024-01-16T06:22:27.586Z,32.65
2024-01-16T06:24:56.763Z,34.75
2024-01-16T06:27:26.243Z,34.35
2024-01-16T06:32:21.715Z,34.05
2024-01-16T06:34:49.429Z,35.97
2024-01-16T06:37:17.045Z,34.10
2024-01-16T06:39:45.169Z,33.80
2024-01-16T06:42:12.935Z,33.25
2024-01-16T06:44:42.047Z,34.15
2024-01-16T06:47:10.112Z,33.90
2024-01-16T06:49:37.907Z,34.05
2024-01-16T06:52:05.709Z,33.15
2024-01-16T06:54:33.477Z,31.83
2024-01-16T06:57:01.101Z,33.90
2024-01-16T06:59:29.174Z,36.03
2024-01-16T07:01:58.271Z,31.95
2024-01-16T07:04:25.974Z,32.67
2024-01-16T07:06:53.862Z,33.85
2024-01-16T07:09:21.718Z,31.90
2024-01-16T07:11:49.362Z,32.72
2024-01-16T07:14:17.402Z,31.00
2024-01-16T07:16:45.431Z,32.78
2024-01-16T07:19:14.749Z,33.53
2024-01-16T07:21:42.735Z,33.17
2024-01-16T07:24:10.732Z,33.05
2024-01-16T07:26:38.519Z,29.05
2024-01-16T07:29:06.579Z,32.63
2024-01-16T07:31:34.540Z,34.25
2024-01-16T07:34:02.322Z,32.33
2024-01-16T07:36:32.278Z,29.42
2024-01-16T07:39:00.067Z,32.25
2024-01-16T07:41:27.786Z,31.92
2024-01-16T07:43:55.750Z,31.35
2024-01-16T07:46:23.697Z,29.30
2024-01-16T07:48:51.481Z,31.23
2024-01-16T07:51:19.306Z,28.15
2024-01-16T07:53:48.703Z,31.55
2024-01-16T07:56:16.466Z,29.48
2024-01-16T07:58:44.927Z,28.45
2024-01-16T08:01:13.186Z,26.13
2024-01-16T08:03:41.226Z,26.30
2024-01-16T08:06:09.767Z,27.30
2024-01-16T08:08:38.201Z,28.60
2024-01-16T08:11:07.472Z,28.65
2024-01-16T08:13:35.537Z,28.95
2024-01-16T08:16:03.781Z,27.30
2024-01-16T08:18:31.658Z,27.80
2024-01-16T08:20:59.496Z,29.55
2024-01-16T08:23:27.726Z,28.25
2024-01-16T08:25:55.479Z,27.77
2024-01-16T08:28:24.978Z,28.95
2024-01-16T08:30:53.311Z,28.60
2024-01-16T08:33:27.931Z,28.45
2024-01-16T08:36:02.306Z,27.73
2024-01-16T08:38:30.311Z,27.67
2024-01-16T08:40:58.355Z,27.95
2024-01-16T08:43:27.957Z,27.75
2024-01-16T08:48:23.683Z,28.23
2024-01-16T08:50:51.920Z,26.50
2024-01-16T08:53:19.742Z,27.42
2024-01-16T08:55:47.482Z,25.73
2024-01-16T08:58:16.240Z,25.98
2024-01-16T09:00:45.774Z,25.95
2024-01-16T09:03:13.844Z,26.88
2024-01-16T09:05:41.986Z,26.77
2024-01-16T09:08:11.822Z,25.92
2024-01-16T09:10:41.733Z,25.80
2024-01-16T09:13:09.407Z,27.95
2024-01-16T09:15:37.406Z,27.70
2024-01-16T09:18:07.346Z,27.08
2024-01-16T09:23:05.222Z,27.73
2024-01-16T09:25:33.535Z,27.50
2024-01-16T09:28:01.319Z,24.88
2024-01-16T09:30:29.174Z,25.52
2024-01-16T09:32:57.955Z,24.42
2024-01-16T09:35:27.237Z,23.40
2024-01-16T09:37:54.939Z,24.17
2024-01-16T09:40:26.068Z,22.20
2024-01-16T09:42:54.032Z,23.88
2024-01-16T09:45:22.389Z,22.70
2024-01-16T09:47:52.640Z,22.48
2024-01-16T09:50:21.417Z,23.08
2024-01-16T09:52:50.654Z,23.70
2024-01-16T09:55:18.952Z,23.20
2024-01-16T09:57:47.715Z,24.00
2024-01-16T10:00:16.516Z,22.98
2024-01-16T10:02:44.817Z,23.37
2024-01-16T10:05:13.843Z,21.98
2024-01-16T10:07:43.339Z,24.02
2024-01-16T10:10:13.567Z,23.73
2024-01-16T10:12:41.780Z,22.17
2024-01-16T10:15:10.300Z,22.85
2024-01-16T10:17:39.795Z,24.10
2024-01-16T10:20:09.021Z,24.20
2024-01-16T10:22:36.817Z,24.38
2024-01-16T10:25:08.842Z,24.52
2024-01-16T10:27:38.846Z,23.92
2024-01-16T10:30:08.331Z,23.33
2024-01-16T10:32:37.991Z,24.52
2024-01-16T10:35:07.986Z,23.10
2024-01-16T10:37:46.130Z,24.38
2024-01-16T10:40:17.357Z,26.20
2024-01-16T10:42:47.007Z,25.70
2024-01-16T10:45:20.744Z,23.10
2024-01-16T10:47:49.093Z,24.73
2024-01-16T10:50:17.199Z,25.92
2024-01-16T10:52:48.892Z,27.90
2024-01-16T10:55:21.617Z,25.00
2024-01-16T10:57:52.587Z,27.70
2024-01-16T11:00:22.049Z,26.70
2024-01-16T11:02:56.025Z,27.10
2024-01-16T11:05:27.106Z,26.65
2024-01-16T11:07:57.320Z,23.52
2024-01-16T11:12:56.981Z,26.67
2024-01-16T11:15:26.643Z,24.58
2024-01-16T11:17:55.185Z,26.60
2024-01-16T11:20:38.743Z,26.83
2024-01-16T11:23:14.696Z,27.75
2024-01-16T11:25:42.403Z,27.10
2024-01-16T11:28:13.136Z,27.52
2024-01-16T11:30:42.562Z,24.17
2024-01-16T11:33:43.557Z,24.92
2024-01-16T11:36:44.876Z,26.23
2024-01-16T11:39:19.128Z,23.65
2024-01-16T11:41:51.241Z,25.60
2024-01-16T11:44:42.542Z,22.92
2024-01-16T11:47:11.275Z,26.58
2024-01-16T11:49:39.377Z,25.13
2024-01-16T11:52:07.536Z,25.40
2024-01-16T11:54:35.815Z,24.20
2024-01-16T11:57:27.424Z,26.27
2024-01-16T12:00:04.075Z,24.73
2024-01-16T12:02:53.718Z,24.50
2024-01-16T12:05:22.592Z,25.45
2024-01-16T12:07:51.238Z,24.10
2024-01-16T12:10:20.118Z,25.70
2024-01-16T12:12:49.674Z,21.63
2024-01-16T12:15:20.961Z,21.08
2024-01-16T12:17:56.520Z,24.05
2024-01-16T12:20:25.713Z,23.38
2024-01-16T12:22:58.013Z,20.47
2024-01-16T12:25:59.354Z,21.92
2024-01-16T12:28:19.176Z,21.45
2024-01-16T12:30:53.112Z,23.58
2024-01-16T12:33:24.215Z,22.08
2024-01-16T12:36:01.535Z,22.63
2024-01-16T12:38:30.448Z,20.17
2024-01-16T12:40:59.502Z,21.90
2024-01-16T12:43:27.202Z,21.40
2024-01-16T12:45:59.665Z,22.73
2024-01-16T12:48:28.201Z,22.48
2024-01-16T12:51:00.808Z,23.10
2024-01-16T12:53:28.855Z,22.00
2024-01-16T12:55:59.837Z,21.50
2024-01-16T12:58:34.313Z,20.30
2024-01-16T13:01:33.849Z,24.17
2024-01-16T13:04:07.104Z,23.77
2024-01-16T13:06:35.450Z,21.98
2024-01-16T13:09:07.906Z,23.52
2024-01-16T13:11:46.704Z,24.55
2024-01-16T13:14:14.974Z,25.57
2024-01-16T13:16:44.291Z,22.58
2024-01-16T13:21:40.099Z,23.77
2024-01-16T13:24:08.811Z,21.80
2024-01-16T13:26:37.306Z,16.15
2024-01-16T13:29:05.393Z,19.95
2024-01-16T13:31:33.538Z,20.75
2024-01-16T13:34:03.120Z,22.80
2024-01-16T13:39:01.843Z,21.90
2024-01-16T13:41:29.652Z,22.25
2024-01-16T13:43:58.036Z,22.67
2024-01-16T13:46:37.039Z,22.05
2024-01-16T13:49:15.855Z,21.67
2024-01-16T13:51:45.758Z,20.67
2024-01-16T13:54:14.310Z,20.95
2024-01-16T13:56:58.459Z,19.52
2024-01-16T13:59:32.728Z,19.55
2024-01-16T14:02:00.944Z,17.30
2024-01-16T14:04:30.238Z,20.80
2024-01-16T14:07:10.942Z,22.83
2024-01-16T14:09:43.504Z,20.77
2024-01-16T14:12:12.581Z,19.75
2024-01-16T14:14:42.368Z,18.90
2024-01-16T14:17:11.014Z,19.00
2024-01-16T14:19:40.261Z,18.42
2024-01-16T14:22:08.529Z,18.17
2024-01-16T14:24:37.900Z,19.23
2024-01-16T14:27:05.881Z,17.23
2024-01-16T14:29:33.704Z,19.63
2024-01-16T14:32:01.843Z,16.70
2024-01-16T14:34:29.507Z,17.10
2024-01-16T14:36:58.926Z,17.45
2024-01-16T14:39:27.734Z,17.65
2024-01-16T14:41:56.108Z,19.27
2024-01-16T14:44:24.086Z,19.80
2024-01-16T14:46:53.726Z,16.25
2024-01-16T14:49:21.733Z,18.02
2024-01-16T14:51:49.659Z,17.20
2024-01-16T14:54:20.057Z,17.75
2024-01-16T14:56:48.003Z,17.00
2024-01-16T14:59:16.539Z,16.30
2024-01-16T15:01:45.729Z,16.67
2024-01-16T15:04:13.979Z,16.37
2024-01-16T15:06:42.236Z,16.55
2024-01-16T15:09:10.800Z,14.07
2024-01-16T15:11:40.310Z,16.35
2024-01-16T15:14:08.119Z,14.82
2024-01-16T15:16:36.503Z,14.88
2024-01-16T15:19:04.411Z,15.27
2024-01-16T15:21:32.580Z,13.65
2024-01-16T15:24:00.940Z,14.73
2024-01-16T15:26:28.720Z,13.73
2024-01-16T15:28:58.159Z,13.50
2024-01-16T15:31:26.159Z,14.10
2024-01-16T15:33:53.889Z,13.48
2024-01-16T15:36:22.504Z,14.73
2024-01-16T15:38:50.294Z,12.93
2024-01-16T15:41:18.195Z,15.90
2024-01-16T15:43:45.960Z,14.82
2024-01-16T15:46:15.372Z,14.50
2024-01-16T15:48:43.140Z,14.63
2024-01-16T15:51:11.331Z,15.63
2024-01-16T15:53:39.427Z,14.50
2024-01-16T15:56:07.271Z,14.20
2024-01-16T15:58:35.256Z,14.63
2024-01-16T16:01:03.590Z,13.82
2024-01-16T16:03:33.212Z,13.07
2024-01-16T16:08:28.936Z,14.13
2024-01-16T16:10:57.289Z,13.52
2024-01-16T16:13:25.244Z,12.73
2024-01-16T16:15:53.206Z,12.02
2024-01-16T16:18:21.077Z,13.45
2024-01-16T16:20:50.429Z,12.32
2024-01-16T16:23:18.637Z,12.52
2024-01-16T16:25:47.971Z,13.15
2024-01-16T16:28:15.852Z,12.18
2024-01-16T16:30:43.699Z,10.52
2024-01-16T16:33:11.631Z,12.93
2024-01-16T16:35:39.742Z,12.65
2024-01-16T16:38:09.403Z,12.35
2024-01-16T16:40:38.149Z,12.25
2024-01-16T16:43:06.310Z,11.38
2024-01-16T16:45:34.395Z,11.68
2024-01-16T16:48:02.275Z,12.00
2024-01-16T16:50:30.402Z,10.77
2024-01-16T16:52:58.461Z,11.40
2024-01-16T16:55:27.807Z,11.55
2024-01-16T16:57:55.869Z,11.43
2024-01-16T17:00:24.077Z,10.85
2024-01-16T17:02:52.224Z,10.18
2024-01-16T17:05:20.386Z,10.98
2024-01-16T17:07:48.985Z,11.48
2024-01-16T17:10:16.985Z,10.88
2024-01-16T17:12:46.588Z,10.50
2024-01-16T17:15:15.004Z,10.32
2024-01-16T17:17:42.940Z,12.00
2024-01-16T17:20:12.436Z,11.45
2024-01-16T17:25:09.323Z,10.45
2024-01-16T17:27:37.934Z,10.27
2024-01-16T17:30:09.922Z,9.75
2024-01-16T17:32:37.714Z,10.30
2024-01-16T17:35:06.370Z,9.90
2024-01-16T17:37:35.015Z,10.70
2024-01-16T17:40:02.968Z,10.30
2024-01-16T17:42:31.075Z,9.45
2024-01-16T17:44:59.220Z,9.82
2024-01-16T17:47:28.709Z,9.57
2024-01-16T17:49:56.529Z,9.73
2024-01-16T17:52:24.887Z,12.50
2024-01-16T17:54:52.711Z,11.27
2024-01-16T17:57:20.623Z,10.88
2024-01-16T17:59:49.444Z,9.95
2024-01-16T18:02:17.264Z,9.90
2024-01-16T18:04:46.471Z,14.70
2024-01-16T18:07:14.675Z,15.52
2024-01-16T18:09:44.467Z,13.23
2024-01-16T18:12:13.471Z,12.65
2024-01-16T18:14:41.337Z,14.60
2024-01-16T18:17:09.637Z,13.13
2024-01-16T18:19:37.589Z,13.02
2024-01-16T18:22:07.285Z,11.13
2024-01-16T18:24:35.109Z,11.90
2024-01-16T18:27:02.861Z,12.32
2024-01-16T18:29:31.355Z,11.98
2024-01-16T18:31:59.751Z,11.50
2024-01-16T18:34:27.487Z,11.90
2024-01-16T18:36:55.655Z,11.48
2024-01-16T18:39:25.146Z,10.98
2024-01-16T18:41:53.103Z,11.20
2024-01-16T18:44:21.177Z,10.40
2024-01-16T18:46:49.160Z,10.85
2024-01-16T18:49:17.407Z,10.93
2024-01-16T18:51:46.132Z,11.00
2024-01-16T18:54:13.974Z,9.55
2024-01-16T18:56:43.245Z,10.07
2024-01-16T18:59:11.347Z,9.23
2024-01-16T19:01:39.317Z,10.27
2024-01-16T19:04:07.097Z,10.48
2024-01-16T19:06:35.430Z,10.23
2024-01-16T19:09:03.692Z,9.18
2024-01-16T19:11:31.608Z,9.85
2024-01-16T19:14:01.158Z,8.73
2024-01-16T19:16:29.416Z,9.38
2024-01-16T19:18:57.601Z,9.75
2024-01-16T19:21:25.516Z,9.10
2024-01-16T19:23:53.315Z,7.97
2024-01-16T19:26:21.317Z,8.10
2024-01-16T19:28:49.127Z,8.77
2024-01-16T19:31:18.948Z,8.05
2024-01-16T19:33:47.100Z,8.25
2024-01-16T19:36:15.285Z,9.35
2024-01-16T19:38:43.050Z,9.02
2024-01-16T19:41:11.159Z,8.60
2024-01-16T19:43:39.138Z,8.00
2024-01-16T19:46:06.927Z,8.35
2024-01-16T19:48:36.714Z,7.85
2024-01-16T19:51:05.279Z,7.78
2024-01-16T19:53:33.286Z,7.63
2024-01-16T19:56:01.103Z,7.55
2024-01-16T19:58:29.099Z,7.47
2024-01-16T20:00:57.601Z,10.38
2024-01-16T20:03:25.587Z,9.23
2024-01-16T20:05:55.190Z,8.65
2024-01-16T20:08:22.998Z,8.35
2024-01-16T20:10:51.652Z,8.60
2024-01-16T20:13:19.629Z,8.10
2024-01-16T20:15:48.005Z,7.53
2024-01-16T20:18:16.190Z,7.65
2024-01-16T20:20:44.834Z,7.80
2024-01-16T20:23:14.213Z,7.47
2024-01-16T20:25:41.876Z,8.00
2024-01-16T20:28:09.787Z,7.72
2024-01-16T20:30:37.630Z,7.78
2024-01-16T20:33:05.758Z,8.65
2024-01-16T20:35:34.033Z,7.45
2024-01-16T20:38:01.878Z,7.22
2024-01-16T20:40:30.921Z,8.30
2024-01-16T20:42:59.093Z,8.02
2024-01-16T20:45:26.868Z,7.70
2024-01-16T20:47:54.813Z,7.18
2024-01-16T20:50:23.024Z,7.47
2024-01-16T20:52:51.214Z,8.00
2024-01-16T20:55:18.965Z,7.75
2024-01-16T20:57:49.050Z,7.30
2024-01-16T21:00:17.871Z,7.22
2024-01-16T21:02:45.726Z,8.65
2024-01-16T21:05:13.973Z,6.93
2024-01-16T21:07:42.172Z,7.05
2024-01-16T21:10:10.873Z,7.53
2024-01-16T21:12:38.737Z,7.25
2024-01-16T21:15:09.196Z,7.00
2024-01-16T21:17:37.461Z,7.07
2024-01-16T21:20:07.325Z,6.80
2024-01-16T21:22:37.028Z,7.55
2024-01-16T21:25:06.658Z,6.90
2024-01-16T21:27:35.320Z,7.20
2024-01-16T21:30:03.826Z,6.40
2024-01-16T21:32:33.976Z,6.70
2024-01-16T21:35:01.841Z,7.88
2024-01-16T21:37:29.512Z,13.93
2024-01-16T21:39:57.238Z,13.77
2024-01-16T21:42:25.267Z,9.68
2024-01-16T21:44:53.263Z,9.73
2024-01-16T21:47:21.220Z,9.90
2024-01-16T21:49:52.711Z,10.18
2024-01-16T21:52:21.519Z,9.05
2024-01-16T21:54:49.178Z,9.35
2024-01-16T21:57:17.214Z,8.85
2024-01-16T21:59:45.204Z,11.98
2024-01-16T22:02:12.968Z,8.45
2024-01-16T22:04:41.064Z,8.52
2024-01-16T22:07:10.294Z,8.32
2024-01-16T22:09:39.090Z,8.77
2024-01-16T22:12:09.047Z,8.90
2024-01-16T22:17:04.853Z,8.80
2024-01-16T22:19:32.919Z,8.35
2024-01-16T22:22:00.606Z,8.27
2024-01-16T22:24:30.093Z,8.88
2024-01-16T22:26:58.020Z,7.78
2024-01-16T22:29:25.779Z,7.45
2024-01-16T22:31:53.759Z,8.20
2024-01-16T22:34:22.549Z,8.25
2024-01-16T22:36:50.254Z,8.13
2024-01-16T22:39:18.386Z,8.75
2024-01-16T22:41:49.269Z,8.13
2024-01-16T22:44:18.081Z,9.23
2024-01-16T22:46:45.890Z,9.43
2024-01-16T22:49:14.020Z,9.80
2024-01-16T22:51:41.772Z,8.52
2024-01-16T22:54:09.540Z,8.23
2024-01-16T22:56:37.641Z,8.75
2024-01-16T22:59:06.995Z,8.48
2024-01-16T23:01:37.206Z,8.27
2024-01-16T23:04:06.070Z,8.90
2024-01-16T23:06:34.192Z,7.97
2024-01-16T23:09:01.888Z,8.57
2024-01-16T23:11:29.828Z,7.95
2024-01-16T23:13:57.874Z,7.03
2024-01-16T23:16:27.129Z,7.47
2024-01-16T23:18:55.127Z,7.20
2024-01-16T23:21:23.108Z,7.32
2024-01-16T23:23:50.968Z,9.23
2024-01-16T23:26:19.011Z,9.15
2024-01-16T23:28:47.180Z,8.23
2024-01-16T23:31:14.904Z,8.50
2024-01-16T23:33:44.485Z,7.90
2024-01-16T23:38:39.967Z,8.25
2024-01-16T23:41:08.763Z,7.80
2024-01-16T23:43:37.511Z,7.88
2024-01-16T23:46:05.468Z,7.60
2024-01-16T23:48:34.366Z,7.75
2024-01-16T23:51:04.582Z,6.63
2024-01-16T23:53:32.353Z,7.38
2024-01-16T23:56:00.349Z,6.57
2024-01-16T23:58:30.017Z,6.72
